PRIVATE WETTERSTATION BILLIGHEIM-ALLFELD                       ZURCK
Wetterdaten: Mittwoch, 15.02.2017
Datum Zeit Temp. A. Temp. A. min Temp. A. max Feuchte A. Luftdruck Regen Wind Richtung Richtung Sonnenschein ET Solar Taupunkt Windchill Windben Empfang
15.02.2017 00:00 -0,8 C -0,8 C -0,6 C 86 % 1032,8 hPa 0,0 l/m 0,0 km/h (0 Bft) N 360 0 min 0,000 mm 0 W/m -2,8 C -0,8 C 4,8 km/h (1 Bft) 100 %
15.02.2017 00:10 -0,8 C -0,9 C -0,8 C 87 % 1032,9 hPa 0,0 l/m 0,0 km/h (0 Bft) N 0 0 min 0,000 mm 0 W/m -2,7 C -0,8 C 0,0 km/h (0 Bft) 100 %
15.02.2017 00:20 -0,9 C -0,9 C -0,8 C 86 % 1033,1 hPa 0,0 l/m 0,0 km/h (0 Bft) N 0 0 min 0,000 mm 0 W/m -2,9 C -0,9 C 0,0 km/h (0 Bft) 100 %
15.02.2017 00:30 -1,2 C -1,2 C -0,9 C 86 % 1033,3 hPa 0,0 l/m 0,0 km/h (0 Bft) N 360 0 min 0,000 mm 0 W/m -3,2 C -1,2 C 4,8 km/h (1 Bft) 91 %
15.02.2017 00:40 -1,3 C -1,3 C -1,2 C 87 % 1033,3 hPa 0,0 l/m 0,0 km/h (0 Bft) N 360 0 min 0,000 mm 0 W/m -3,2 C -1,3 C 1,6 km/h (1 Bft) 100 %
15.02.2017 00:50 -1,3 C -1,4 C -1,3 C 88 % 1033,4 hPa 0,0 l/m 0,0 km/h (0 Bft) N 360 0 min 0,000 mm 0 W/m -3,0 C -1,3 C 3,2 km/h (1 Bft) 100 %
15.02.2017 01:00 -0,9 C -1,3 C -0,9 C 88 % 1033,5 hPa 0,0 l/m 0,0 km/h (0 Bft) N 0 0 min 0,000 mm 0 W/m -2,6 C -0,9 C 0,0 km/h (0 Bft) 100 %
15.02.2017 01:10 -0,6 C -0,9 C -0,6 C 88 % 1033,5 hPa 0,0 l/m 0,0 km/h (0 Bft) N 0 0 min 0,000 mm 0 W/m -2,3 C -0,6 C 0,0 km/h (0 Bft) 99 %
15.02.2017 01:20 -0,4 C -0,7 C -0,4 C 88 % 1033,4 hPa 0,0 l/m 0,0 km/h (0 Bft) N 0 0 min 0,000 mm 0 W/m -2,1 C -0,4 C 0,0 km/h (0 Bft) 100 %
15.02.2017 01:30 -0,5 C -0,5 C -0,4 C 86 % 1033,4 hPa 0,0 l/m 0,0 km/h (0 Bft) N 360 0 min 0,000 mm 0 W/m -2,5 C -0,5 C 1,6 km/h (1 Bft) 99 %
15.02.2017 01:40 -0,9 C -0,9 C -0,5 C 86 % 1033,4 hPa 0,0 l/m 0,0 km/h (0 Bft) N 360 0 min 0,000 mm 0 W/m -2,9 C -0,9 C 1,6 km/h (1 Bft) 100 %
15.02.2017 01:50 -1,4 C -1,4 C -0,9 C 87 % 1033,4 hPa 0,0 l/m 0,0 km/h (0 Bft) N 0 0 min 0,000 mm 0 W/m -3,3 C -1,4 C 0,0 km/h (0 Bft) 100 %
15.02.2017 02:00 -1,5 C -1,5 C -1,4 C 88 % 1033,4 hPa 0,0 l/m 0,0 km/h (0 Bft) N 0 0 min 0,000 mm 0 W/m -3,2 C -1,5 C 0,0 km/h (0 Bft) 100 %
15.02.2017 02:10 -1,3 C -1,5 C -1,3 C 88 % 1033,4 hPa 0,0 l/m 0,0 km/h (0 Bft) N 0 0 min 0,000 mm 0 W/m -3,0 C -1,3 C 0,0 km/h (0 Bft) 100 %
15.02.2017 02:20 -1,6 C -1,6 C -1,4 C 88 % 1033,5 hPa 0,0 l/m 0,0 km/h (0 Bft) N 0 0 min 0,000 mm 0 W/m -3,3 C -1,6 C 0,0 km/h (0 Bft) 100 %
15.02.2017 02:30 -1,7 C -1,7 C -1,6 C 89 % 1033,5 hPa 0,0 l/m 0,0 km/h (0 Bft) N 0 0 min 0,000 mm 0 W/m -3,3 C -1,7 C 0,0 km/h (0 Bft) 100 %
15.02.2017 02:40 -1,7 C -1,7 C -1,7 C 89 % 1033,4 hPa 0,0 l/m 0,0 km/h (0 Bft) N 0 0 min 0,000 mm 0 W/m -3,3 C -1,7 C 0,0 km/h (0 Bft) 100 %
15.02.2017 02:50 -1,7 C -1,7 C -1,7 C 90 % 1033,3 hPa 0,0 l/m 0,0 km/h (0 Bft) N 0 0 min 0,000 mm 0 W/m -3,1 C -1,7 C 0,0 km/h (0 Bft) 100 %
15.02.2017 03:00 -1,6 C -1,7 C -1,6 C 90 % 1033,3 hPa 0,0 l/m 0,0 km/h (0 Bft) N 360 0 min 0,000 mm 0 W/m -3,0 C -1,6 C 1,6 km/h (1 Bft) 100 %
15.02.2017 03:10 -1,4 C -1,6 C -1,4 C 90 % 1033,4 hPa 0,0 l/m 0,0 km/h (0 Bft) N 0 0 min 0,000 mm 0 W/m -2,8 C -1,4 C 0,0 km/h (0 Bft) 100 %
15.02.2017 03:20 -1,3 C -1,4 C -1,3 C 89 % 1033,3 hPa 0,0 l/m 0,0 km/h (0 Bft) N 360 0 min 0,000 mm 0 W/m -2,9 C -1,3 C 1,6 km/h (1 Bft) 100 %
15.02.2017 03:30 -1,4 C -1,4 C -1,2 C 88 % 1033,3 hPa 0,0 l/m 0,0 km/h (0 Bft) N 0 0 min 0,000 mm 0 W/m -3,1 C -1,4 C 0,0 km/h (0 Bft) 100 %
15.02.2017 03:40 -1,6 C -1,6 C -1,4 C 89 % 1033,3 hPa 0,0 l/m 0,0 km/h (0 Bft) N 0 0 min 0,000 mm 0 W/m -3,2 C -1,6 C 0,0 km/h (0 Bft) 100 %
15.02.2017 03:50 -1,8 C -1,8 C -1,6 C 88 % 1033,2 hPa 0,0 l/m 0,0 km/h (0 Bft) N 0 0 min 0,000 mm 0 W/m -3,5 C -1,8 C 0,0 km/h (0 Bft) 100 %
15.02.2017 04:00 -2,1 C -2,1 C -1,8 C 89 % 1033,3 hPa 0,0 l/m 0,0 km/h (0 Bft) N 0 0 min 0,000 mm 0 W/m -3,7 C -2,1 C 0,0 km/h (0 Bft) 100 %
15.02.2017 04:10 -2,2 C -2,2 C -2,1 C 89 % 1033,3 hPa 0,0 l/m 0,0 km/h (0 Bft) N 0 0 min 0,000 mm 0 W/m -3,8 C -2,2 C 0,0 km/h (0 Bft) 90 %
15.02.2017 04:20 -2,4 C -2,4 C -2,2 C 89 % 1033,4 hPa 0,0 l/m 0,0 km/h (0 Bft) N 0 0 min 0,000 mm 0 W/m -4,0 C -2,4 C 0,0 km/h (0 Bft) 100 %
15.02.2017 04:30 -2,6 C -2,6 C -2,4 C 89 % 1033,7 hPa 0,0 l/m 0,0 km/h (0 Bft) N 0 0 min 0,000 mm 0 W/m -4,2 C -2,6 C 0,0 km/h (0 Bft) 100 %
15.02.2017 04:40 -2,8 C -2,8 C -2,6 C 90 % 1033,7 hPa 0,0 l/m 0,0 km/h (0 Bft) N 0 0 min 0,000 mm 0 W/m -4,2 C -2,8 C 0,0 km/h (0 Bft) 100 %
15.02.2017 04:50 -3,0 C -3,0 C -2,8 C 90 % 1033,7 hPa 0,0 l/m 0,0 km/h (0 Bft) N 0 0 min 0,000 mm 0 W/m -4,4 C -3,0 C 0,0 km/h (0 Bft) 100 %
15.02.2017 05:00 -3,0 C -3,0 C -2,9 C 91 % 1033,7 hPa 0,0 l/m 0,0 km/h (0 Bft) N 0 0 min 0,000 mm 0 W/m -4,3 C -3,0 C 0,0 km/h (0 Bft) 100 %
15.02.2017 05:10 -2,9 C -3,0 C -2,9 C 91 % 1033,8 hPa 0,0 l/m 0,0 km/h (0 Bft) N 0 0 min 0,000 mm 0 W/m -4,2 C -2,9 C 0,0 km/h (0 Bft) 100 %
15.02.2017 05:20 -2,9 C -2,9 C -2,9 C 91 % 1033,9 hPa 0,0 l/m 0,0 km/h (0 Bft) N 0 0 min 0,000 mm 0 W/m -4,2 C -2,9 C 0,0 km/h (0 Bft) 91 %
15.02.2017 05:30 -3,1 C -3,1 C -2,9 C 91 % 1033,9 hPa 0,0 l/m 0,0 km/h (0 Bft) N 0 0 min 0,000 mm 0 W/m -4,4 C -3,1 C 0,0 km/h (0 Bft) 100 %
15.02.2017 05:40 -3,1 C -3,1 C -3,1 C 91 % 1033,9 hPa 0,0 l/m 0,0 km/h (0 Bft) N 0 0 min 0,000 mm 0 W/m -4,4 C -3,1 C 0,0 km/h (0 Bft) 100 %
15.02.2017 05:50 -3,2 C -3,2 C -3,1 C 91 % 1033,9 hPa 0,0 l/m 0,0 km/h (0 Bft) N 0 0 min 0,000 mm 0 W/m -4,5 C -3,2 C 0,0 km/h (0 Bft) 100 %
15.02.2017 06:00 -3,2 C -3,2 C -3,2 C 91 % 1034,0 hPa 0,0 l/m 0,0 km/h (0 Bft) N 0 0 min 0,000 mm 0 W/m -4,5 C -3,2 C 0,0 km/h (0 Bft) 100 %
15.02.2017 06:10 -3,4 C -3,4 C -3,2 C 91 % 1034,0 hPa 0,0 l/m 0,0 km/h (0 Bft) N 0 0 min 0,000 mm 0 W/m -4,7 C -3,4 C 0,0 km/h (0 Bft) 100 %
15.02.2017 06:20 -3,4 C -3,4 C -3,4 C 91 % 1034,1 hPa 0,0 l/m 0,0 km/h (0 Bft) N 0 0 min 0,000 mm 0 W/m -4,7 C -3,4 C 0,0 km/h (0 Bft) 100 %
15.02.2017 06:30 -3,4 C -3,4 C -3,4 C 91 % 1034,2 hPa 0,0 l/m 0,0 km/h (0 Bft) N 0 0 min 0,000 mm 0 W/m -4,7 C -3,4 C 0,0 km/h (0 Bft) 100 %
15.02.2017 06:40 -3,3 C -3,4 C -3,3 C 91 % 1034,2 hPa 0,0 l/m 0,0 km/h (0 Bft) N 0 0 min 0,000 mm 0 W/m -4,6 C -3,3 C 0,0 km/h (0 Bft) 100 %
15.02.2017 06:50 -3,2 C -3,3 C -3,2 C 91 % 1034,2 hPa 0,0 l/m 0,0 km/h (0 Bft) N 0 0 min 0,000 mm 0 W/m -4,5 C -3,2 C 0,0 km/h (0 Bft) 100 %
15.02.2017 07:00 -3,2 C -3,2 C -3,1 C 91 % 1034,2 hPa 0,0 l/m 0,0 km/h (0 Bft) N 0 0 min 0,000 mm 0 W/m -4,5 C -3,2 C 0,0 km/h (0 Bft) 100 %
15.02.2017 07:10 -3,4 C -3,4 C -3,2 C 91 % 1034,2 hPa 0,0 l/m 0,0 km/h (0 Bft) N 0 0 min 0,000 mm 0 W/m -4,7 C -3,4 C 0,0 km/h (0 Bft) 100 %
15.02.2017 07:20 -3,5 C -3,5 C -3,3 C 91 % 1034,4 hPa 0,0 l/m 0,0 km/h (0 Bft) N 0 0 min 0,000 mm 0 W/m -4,8 C -3,5 C 0,0 km/h (0 Bft) 100 %
15.02.2017 07:30 -3,7 C -3,7 C -3,5 C 91 % 1034,5 hPa 0,0 l/m 0,0 km/h (0 Bft) N 0 0 min 0,000 mm 0 W/m -4,9 C -3,7 C 0,0 km/h (0 Bft) 90 %
15.02.2017 07:40 -3,8 C -3,8 C -3,7 C 91 % 1034,6 hPa 0,0 l/m 0,0 km/h (0 Bft) N 0 0 min 0,000 mm 7 W/m -5,0 C -3,8 C 0,0 km/h (0 Bft) 100 %
15.02.2017 07:50 -3,8 C -3,8 C -3,8 C 91 % 1034,6 hPa 0,0 l/m 0,0 km/h (0 Bft) N 0 0 min 0,000 mm 14 W/m -5,0 C -3,8 C 0,0 km/h (0 Bft) 100 %
15.02.2017 08:00 -3,8 C -3,8 C -3,8 C 91 % 1034,7 hPa 0,0 l/m 0,0 km/h (0 Bft) N 0 0 min 0,000 mm 21 W/m -5,0 C -3,8 C 0,0 km/h (0 Bft) 100 %
15.02.2017 08:10 -3,6 C -3,8 C -3,6 C 91 % 1034,8 hPa 0,0 l/m 0,0 km/h (0 Bft) N 0 0 min 0,000 mm 28 W/m -4,8 C -3,6 C 0,0 km/h (0 Bft) 100 %
15.02.2017 08:20 -3,4 C -3,6 C -3,4 C 91 % 1034,9 hPa 0,0 l/m 0,0 km/h (0 Bft) N 0 0 min 0,000 mm 40 W/m -4,7 C -3,4 C 0,0 km/h (0 Bft) 100 %
15.02.2017 08:30 -3,3 C -3,4 C -3,3 C 91 % 1035,0 hPa 0,0 l/m 0,0 km/h (0 Bft) N 0 0 min 0,000 mm 40 W/m -4,6 C -3,3 C 0,0 km/h (0 Bft) 100 %
15.02.2017 08:40 -3,3 C -3,3 C -3,3 C 91 % 1035,0 hPa 0,0 l/m 0,0 km/h (0 Bft) N 0 0 min 0,000 mm 83 W/m -4,6 C -3,3 C 0,0 km/h (0 Bft) 89 %
15.02.2017 08:50 -2,9 C -3,3 C -2,9 C 91 % 1035,1 hPa 0,0 l/m 0,0 km/h (0 Bft) N 0 0 min 0,000 mm 142 W/m -4,2 C -2,9 C 0,0 km/h (0 Bft) 100 %
15.02.2017 09:00 -2,1 C -2,8 C -2,1 C 91 % 1035,3 hPa 0,0 l/m 0,0 km/h (0 Bft) N 0 10 min 0,025 mm 167 W/m -3,4 C -2,1 C 0,0 km/h (0 Bft) 100 %
15.02.2017 09:10 -1,4 C -2,1 C -1,4 C 92 % 1035,4 hPa 0,0 l/m 0,0 km/h (0 Bft) N 0 10 min 0,000 mm 171 W/m -2,5 C -1,4 C 0,0 km/h (0 Bft) 100 %
15.02.2017 09:20 -0,8 C -1,3 C -0,8 C 90 % 1035,4 hPa 0,0 l/m 0,0 km/h (0 Bft) N 0 10 min 0,000 mm 190 W/m -2,2 C -0,8 C 0,0 km/h (0 Bft) 100 %
15.02.2017 09:30 -0,3 C -0,8 C -0,3 C 89 % 1035,5 hPa 0,0 l/m 0,0 km/h (0 Bft) N 0 10 min 0,000 mm 211 W/m -1,9 C -0,3 C 0,0 km/h (0 Bft) 100 %
15.02.2017 09:40 0,1 C -0,3 C 0,1 C 87 % 1035,6 hPa 0,0 l/m 0,0 km/h (0 Bft) N 0 10 min 0,000 mm 230 W/m -1,8 C 0,1 C 0,0 km/h (0 Bft) 100 %
15.02.2017 09:50 0,5 C 0,1 C 0,5 C 86 % 1035,5 hPa 0,0 l/m 0,0 km/h (0 Bft) N 0 10 min 0,000 mm 258 W/m -1,6 C 0,5 C 0,0 km/h (0 Bft) 100 %
15.02.2017 10:00 1,2 C 0,5 C 1,2 C 86 % 1035,5 hPa 0,0 l/m 0,0 km/h (0 Bft) N 0 10 min 0,076 mm 281 W/m -0,9 C 1,2 C 0,0 km/h (0 Bft) 100 %
15.02.2017 10:10 2,0 C 1,2 C 2,0 C 84 % 1035,5 hPa 0,0 l/m 0,0 km/h (0 Bft) N 0 10 min 0,000 mm 301 W/m -0,4 C 2,0 C 0,0 km/h (0 Bft) 100 %
15.02.2017 10:20 2,7 C 2,0 C 2,7 C 80 % 1035,6 hPa 0,0 l/m 0,0 km/h (0 Bft) N 0 10 min 0,000 mm 320 W/m -0,4 C 2,7 C 0,0 km/h (0 Bft) 100 %
15.02.2017 10:30 3,4 C 2,8 C 3,4 C 80 % 1035,6 hPa 0,0 l/m 0,0 km/h (0 Bft) N 0 10 min 0,000 mm 339 W/m 0,3 C 3,4 C 0,0 km/h (0 Bft) 100 %
15.02.2017 10:40 4,4 C 3,4 C 4,4 C 78 % 1035,5 hPa 0,0 l/m 0,0 km/h (0 Bft) N 0 10 min 0,000 mm 357 W/m 0,9 C 4,4 C 0,0 km/h (0 Bft) 100 %
15.02.2017 10:50 5,3 C 4,5 C 5,3 C 75 % 1035,6 hPa 0,0 l/m 0,0 km/h (0 Bft) N 360 10 min 0,000 mm 373 W/m 1,2 C 5,3 C 1,6 km/h (1 Bft) 100 %
15.02.2017 11:00 5,9 C 5,3 C 5,9 C 74 % 1035,6 hPa 0,0 l/m 0,0 km/h (0 Bft) N 0 10 min 0,127 mm 390 W/m 1,6 C 5,9 C 0,0 km/h (0 Bft) 100 %
15.02.2017 11:10 6,2 C 5,9 C 6,3 C 72 % 1035,5 hPa 0,0 l/m 0,0 km/h (0 Bft) NW 315 10 min 0,000 mm 406 W/m 1,5 C 6,2 C 1,6 km/h (1 Bft) 100 %
15.02.2017 11:20 6,1 C 6,1 C 6,3 C 73 % 1035,4 hPa 0,0 l/m 0,0 km/h (0 Bft) S-SW 202 10 min 0,000 mm 417 W/m 1,6 C 6,1 C 4,8 km/h (1 Bft) 100 %
15.02.2017 11:30 6,6 C 6,1 C 6,6 C 72 % 1035,4 hPa 0,0 l/m 0,0 km/h (0 Bft) S-SW 202 10 min 0,000 mm 427 W/m 1,9 C 6,6 C 4,8 km/h (1 Bft) 100 %
15.02.2017 11:40 7,2 C 6,6 C 7,2 C 70 % 1035,3 hPa 0,0 l/m 1,6 km/h (1 Bft) S-SW 202 10 min 0,000 mm 436 W/m 2,1 C 7,2 C 8,0 km/h (2 Bft) 100 %
15.02.2017 11:50 6,8 C 6,8 C 7,2 C 70 % 1035,2 hPa 0,0 l/m 1,6 km/h (1 Bft) S-SW 202 10 min 0,000 mm 441 W/m 1,7 C 6,8 C 8,0 km/h (2 Bft) 100 %
15.02.2017 12:00 6,9 C 6,9 C 7,0 C 71 % 1035,2 hPa 0,0 l/m 1,6 km/h (1 Bft) S-SW 202 10 min 0,178 mm 448 W/m 2,0 C 6,9 C 9,7 km/h (2 Bft) 100 %
15.02.2017 12:10 7,1 C 6,9 C 7,1 C 71 % 1035,1 hPa 0,0 l/m 1,6 km/h (1 Bft) S-SW 202 10 min 0,000 mm 454 W/m 2,2 C 7,1 C 8,0 km/h (2 Bft) 100 %
15.02.2017 12:20 7,3 C 7,0 C 7,3 C 70 % 1035,1 hPa 0,0 l/m 0,0 km/h (0 Bft) S-SW 202 10 min 0,000 mm 455 W/m 2,2 C 7,3 C 4,8 km/h (1 Bft) 100 %
15.02.2017 12:30 7,2 C 7,2 C 7,3 C 68 % 1034,9 hPa 0,0 l/m 1,6 km/h (1 Bft) S-SW 202 10 min 0,000 mm 455 W/m 1,7 C 7,2 C 6,4 km/h (2 Bft) 100 %
15.02.2017 12:40 7,3 C 7,1 C 7,3 C 70 % 1034,9 hPa 0,0 l/m 3,2 km/h (1 Bft) S-SW 202 10 min 0,000 mm 455 W/m 2,2 C 7,3 C 8,0 km/h (2 Bft) 100 %
15.02.2017 12:50 7,8 C 7,4 C 7,9 C 67 % 1034,9 hPa 0,0 l/m 0,0 km/h (0 Bft) S-SW 202 10 min 0,000 mm 452 W/m 2,1 C 7,8 C 6,4 km/h (2 Bft) 100 %
15.02.2017 13:00 7,7 C 7,7 C 7,8 C 68 % 1034,7 hPa 0,0 l/m 1,6 km/h (1 Bft) S-SW 202 10 min 0,203 mm 448 W/m 2,2 C 7,7 C 8,0 km/h (2 Bft) 100 %
15.02.2017 13:10 7,5 C 7,5 C 7,7 C 68 % 1034,6 hPa 0,0 l/m 1,6 km/h (1 Bft) S-SW 202 10 min 0,000 mm 446 W/m 2,0 C 7,5 C 8,0 km/h (2 Bft) 100 %
15.02.2017 13:20 7,8 C 7,5 C 7,9 C 68 % 1034,6 hPa 0,0 l/m 1,6 km/h (1 Bft) S-SW 202 10 min 0,000 mm 438 W/m 2,3 C 7,8 C 9,7 km/h (2 Bft) 100 %
15.02.2017 13:30 8,0 C 7,8 C 8,0 C 69 % 1034,6 hPa 0,0 l/m 1,6 km/h (1 Bft) S 180 10 min 0,000 mm 431 W/m 2,7 C 8,0 C 9,7 km/h (2 Bft) 100 %
15.02.2017 13:40 8,3 C 8,0 C 8,3 C 69 % 1034,6 hPa 0,0 l/m 1,6 km/h (1 Bft) S-SW 202 10 min 0,000 mm 422 W/m 3,0 C 8,3 C 8,0 km/h (2 Bft) 100 %
15.02.2017 13:50 8,8 C 8,3 C 8,8 C 68 % 1034,6 hPa 0,0 l/m 1,6 km/h (1 Bft) S-SW 202 10 min 0,000 mm 415 W/m 3,2 C 8,8 C 8,0 km/h (2 Bft) 100 %
15.02.2017 14:00 9,1 C 8,8 C 9,1 C 67 % 1034,3 hPa 0,0 l/m 3,2 km/h (1 Bft) S-SW 202 10 min 0,178 mm 403 W/m 3,3 C 9,1 C 9,7 km/h (2 Bft) 100 %
15.02.2017 14:10 9,2 C 9,1 C 9,2 C 65 % 1034,3 hPa 0,0 l/m 0,0 km/h (0 Bft) S-SW 202 10 min 0,000 mm 392 W/m 3,0 C 9,2 C 6,4 km/h (2 Bft) 100 %
15.02.2017 14:20 9,1 C 9,0 C 9,2 C 67 % 1034,3 hPa 0,0 l/m 1,6 km/h (1 Bft) S-SW 202 10 min 0,000 mm 371 W/m 3,3 C 9,1 C 6,4 km/h (2 Bft) 100 %
15.02.2017 14:30 9,4 C 9,1 C 9,4 C 66 % 1034,3 hPa 0,0 l/m 1,6 km/h (1 Bft) S-SW 202 10 min 0,000 mm 338 W/m 3,4 C 9,4 C 6,4 km/h (2 Bft) 100 %
15.02.2017 14:40 9,6 C 9,4 C 9,6 C 66 % 1034,3 hPa 0,0 l/m 0,0 km/h (0 Bft) S-SW 202 10 min 0,000 mm 325 W/m 3,6 C 9,6 C 4,8 km/h (1 Bft) 100 %
15.02.2017 14:50 9,9 C 9,6 C 9,9 C 64 % 1034,1 hPa 0,0 l/m 0,0 km/h (0 Bft) S-SW 202 10 min 0,000 mm 318 W/m 3,4 C 9,9 C 6,4 km/h (2 Bft) 100 %
15.02.2017 15:00 9,9 C 9,8 C 9,9 C 64 % 1034,1 hPa 0,0 l/m 1,6 km/h (1 Bft) S-SW 202 10 min 0,127 mm 309 W/m 3,4 C 9,9 C 11,3 km/h (2 Bft) 100 %
15.02.2017 15:10 10,0 C 9,9 C 10,0 C 65 % 1034,2 hPa 0,0 l/m 1,6 km/h (1 Bft) SW 225 0 min 0,000 mm 132 W/m 3,7 C 10,0 C 8,0 km/h (2 Bft) 100 %
15.02.2017 15:20 9,8 C 9,8 C 10,0 C 64 % 1034,2 hPa 0,0 l/m 0,0 km/h (0 Bft) S-SW 202 0 min 0,000 mm 65 W/m 3,3 C 9,8 C 6,4 km/h (2 Bft) 100 %
15.02.2017 15:30 9,8 C 9,7 C 9,8 C 65 % 1034,1 hPa 0,0 l/m 3,2 km/h (1 Bft) S-SW 202 0 min 0,000 mm 62 W/m 3,5 C 9,8 C 8,0 km/h (2 Bft) 100 %
15.02.2017 15:40 9,7 C 9,7 C 9,8 C 65 % 1034,1 hPa 0,0 l/m 1,6 km/h (1 Bft) S-SW 202 0 min 0,000 mm 56 W/m 3,4 C 9,7 C 8,0 km/h (2 Bft) 100 %
15.02.2017 15:50 9,5 C 9,5 C 9,7 C 65 % 1034,0 hPa 0,0 l/m 1,6 km/h (1 Bft) S 180 0 min 0,000 mm 54 W/m 3,3 C 9,5 C 6,4 km/h (2 Bft) 100 %
15.02.2017 16:00 9,4 C 9,4 C 9,5 C 65 % 1034,1 hPa 0,0 l/m 1,6 km/h (1 Bft) S-SW 202 0 min 0,025 mm 51 W/m 3,2 C 9,4 C 4,8 km/h (1 Bft) 100 %
15.02.2017 16:10 9,3 C 9,3 C 9,4 C 66 % 1034,1 hPa 0,0 l/m 1,6 km/h (1 Bft) S 180 0 min 0,000 mm 46 W/m 3,3 C 9,3 C 8,0 km/h (2 Bft) 100 %
15.02.2017 16:20 9,3 C 9,3 C 9,4 C 67 % 1034,1 hPa 0,0 l/m 4,8 km/h (1 Bft) S-SW 202 0 min 0,000 mm 44 W/m 3,5 C 9,3 C 9,7 km/h (2 Bft) 100 %
15.02.2017 16:30 9,2 C 9,2 C 9,3 C 67 % 1034,1 hPa 0,0 l/m 3,2 km/h (1 Bft) S-SW 202 0 min 0,000 mm 40 W/m 3,4 C 9,2 C 6,4 km/h (2 Bft) 100 %
15.02.2017 16:40 9,0 C 9,0 C 9,2 C 68 % 1034,1 hPa 0,0 l/m 3,2 km/h (1 Bft) S-SW 202 0 min 0,000 mm 37 W/m 3,4 C 9,0 C 6,4 km/h (2 Bft) 100 %
15.02.2017 16:50 8,7 C 8,7 C 9,0 C 69 % 1034,1 hPa 0,0 l/m 1,6 km/h (1 Bft) S 180 0 min 0,000 mm 32 W/m 3,3 C 8,7 C 4,8 km/h (1 Bft) 99 %
15.02.2017 17:00 8,4 C 8,4 C 8,8 C 69 % 1034,1 hPa 0,0 l/m 0,0 km/h (0 Bft) S 180 0 min 0,025 mm 28 W/m 3,0 C 8,4 C 1,6 km/h (1 Bft) 100 %
15.02.2017 17:10 8,1 C 8,1 C 8,4 C 71 % 1034,2 hPa 0,0 l/m 1,6 km/h (1 Bft) S 180 0 min 0,000 mm 23 W/m 3,2 C 8,1 C 4,8 km/h (1 Bft) 100 %
15.02.2017 17:20 7,8 C 7,8 C 8,1 C 72 % 1034,1 hPa 0,0 l/m 0,0 km/h (0 Bft) S 180 0 min 0,000 mm 18 W/m 3,1 C 7,8 C 1,6 km/h (1 Bft) 100 %
15.02.2017 17:30 7,6 C 7,6 C 7,8 C 72 % 1034,2 hPa 0,0 l/m 3,2 km/h (1 Bft) S 180 0 min 0,000 mm 12 W/m 2,9 C 7,6 C 4,8 km/h (1 Bft) 100 %
15.02.2017 17:50 7,2 C 7,2 C 7,8 C 73 % 1034,2 hPa 0,0 l/m 0,0 km/h (0 Bft) S 190 0 min 0,001 mm 0 W/m 2,7 C 7,2 C 0,0 km/h (0 Bft) 98 %
15.02.2017 18:00 6,9 C 6,9 C 7,2 C 74 % 1034,2 hPa 0,0 l/m 0,0 km/h (0 Bft) S 190 0 min 0,000 mm 0 W/m 2,6 C 6,9 C 0,0 km/h (0 Bft) 97 %
15.02.2017 18:10 6,7 C 6,7 C 6,9 C 74 % 1034,3 hPa 0,0 l/m 0,0 km/h (0 Bft) S 190 0 min 0,000 mm 0 W/m 2,4 C 6,7 C 0,0 km/h (0 Bft) 97 %
15.02.2017 18:20 6,6 C 6,6 C 6,7 C 75 % 1034,3 hPa 0,0 l/m 0,0 km/h (0 Bft) S 190 0 min 0,000 mm 0 W/m 2,5 C 6,6 C 0,0 km/h (0 Bft) 98 %
15.02.2017 18:30 6,3 C 6,3 C 6,6 C 75 % 1034,2 hPa 0,0 l/m 0,0 km/h (0 Bft) S 190 0 min 0,000 mm 0 W/m 2,2 C 6,3 C 0,0 km/h (0 Bft) 97 %
15.02.2017 18:40 6,0 C 6,0 C 6,3 C 76 % 1034,2 hPa 0,0 l/m 0,0 km/h (0 Bft) S 190 0 min 0,000 mm 0 W/m 2,1 C 6,0 C 0,0 km/h (0 Bft) 97 %
15.02.2017 18:50 5,6 C 5,6 C 6,0 C 77 % 1034,4 hPa 0,0 l/m 0,0 km/h (0 Bft) S 190 0 min 0,000 mm 0 W/m 1,9 C 5,6 C 0,0 km/h (0 Bft) 97 %
15.02.2017 19:00 5,2 C 5,2 C 5,6 C 79 % 1034,4 hPa 0,0 l/m 0,0 km/h (0 Bft) S 190 0 min 0,026 mm 0 W/m 1,9 C 5,2 C 0,0 km/h (0 Bft) 98 %
15.02.2017 19:10 4,9 C 4,9 C 5,2 C 80 % 1034,4 hPa 0,0 l/m 0,0 km/h (0 Bft) S 190 0 min 0,000 mm 0 W/m 1,7 C 4,9 C 0,0 km/h (0 Bft) 97 %
15.02.2017 19:20 4,7 C 4,7 C 4,9 C 81 % 1034,3 hPa 0,0 l/m 0,0 km/h (0 Bft) S 190 0 min 0,000 mm 0 W/m 1,7 C 4,7 C 0,0 km/h (0 Bft) 97 %
15.02.2017 19:30 4,5 C 4,5 C 4,7 C 82 % 1034,3 hPa 0,0 l/m 0,0 km/h (0 Bft) S 190 0 min 0,000 mm 0 W/m 1,7 C 4,5 C 0,0 km/h (0 Bft) 97 %
15.02.2017 19:40 4,3 C 4,3 C 4,5 C 82 % 1034,2 hPa 0,0 l/m 0,0 km/h (0 Bft) S 190 0 min 0,000 mm 0 W/m 1,5 C 4,3 C 0,0 km/h (0 Bft) 97 %
15.02.2017 19:50 3,9 C 3,9 C 4,3 C 83 % 1034,3 hPa 0,0 l/m 0,0 km/h (0 Bft) S 190 0 min 0,000 mm 0 W/m 1,3 C 3,9 C 0,0 km/h (0 Bft) 89 %
15.02.2017 20:00 3,6 C 3,6 C 3,9 C 84 % 1034,4 hPa 0,0 l/m 0,0 km/h (0 Bft) S 190 0 min 0,000 mm 0 W/m 1,2 C 3,6 C 0,0 km/h (0 Bft) 98 %
15.02.2017 20:10 3,2 C 3,2 C 3,6 C 85 % 1034,4 hPa 0,0 l/m 0,0 km/h (0 Bft) S 190 0 min 0,000 mm 0 W/m 0,9 C 3,2 C 0,0 km/h (0 Bft) 97 %
15.02.2017 20:20 3,0 C 3,0 C 3,2 C 86 % 1034,4 hPa 0,0 l/m 0,0 km/h (0 Bft) S 190 0 min 0,000 mm 0 W/m 0,9 C 3,0 C 0,0 km/h (0 Bft) 98 %
15.02.2017 20:30 2,8 C 2,8 C 3,0 C 86 % 1034,4 hPa 0,0 l/m 0,0 km/h (0 Bft) S 190 0 min 0,000 mm 0 W/m 0,7 C 2,8 C 0,0 km/h (0 Bft) 97 %
15.02.2017 20:40 2,6 C 2,6 C 2,8 C 87 % 1034,4 hPa 0,0 l/m 0,0 km/h (0 Bft) S 190 0 min 0,000 mm 0 W/m 0,7 C 2,6 C 0,0 km/h (0 Bft) 97 %
15.02.2017 20:50 2,6 C 2,5 C 2,6 C 88 % 1034,3 hPa 0,0 l/m 0,0 km/h (0 Bft) S 190 0 min 0,000 mm 0 W/m 0,8 C 2,6 C 0,0 km/h (0 Bft) 97 %
15.02.2017 21:00 2,6 C 2,6 C 2,6 C 89 % 1034,3 hPa 0,0 l/m 0,0 km/h (0 Bft) S 190 0 min 0,000 mm 0 W/m 1,0 C 2,6 C 0,0 km/h (0 Bft) 97 %
15.02.2017 21:10 2,5 C 2,5 C 2,6 C 88 % 1034,2 hPa 0,0 l/m 0,0 km/h (0 Bft) N 0 0 min 0,000 mm 0 W/m 0,7 C 2,5 C 0,0 km/h (0 Bft) 100 %
15.02.2017 21:20 2,2 C 2,2 C 2,5 C 88 % 1034,3 hPa 0,0 l/m 0,0 km/h (0 Bft) N 0 0 min 0,000 mm 0 W/m 0,4 C 2,2 C 0,0 km/h (0 Bft) 100 %
15.02.2017 21:30 1,8 C 1,8 C 2,2 C 87 % 1034,3 hPa 0,0 l/m 0,0 km/h (0 Bft) N 0 0 min 0,000 mm 0 W/m -0,1 C 1,8 C 0,0 km/h (0 Bft) 100 %
15.02.2017 21:40 1,4 C 1,4 C 1,7 C 88 % 1034,2 hPa 0,0 l/m 0,0 km/h (0 Bft) N 0 0 min 0,000 mm 0 W/m -0,4 C 1,4 C 0,0 km/h (0 Bft) 91 %
15.02.2017 21:50 1,2 C 1,2 C 1,4 C 89 % 1034,3 hPa 0,0 l/m 0,0 km/h (0 Bft) SW 225 0 min 0,000 mm 0 W/m -0,4 C 1,2 C 3,2 km/h (1 Bft) 100 %
15.02.2017 22:00 0,8 C 0,8 C 1,2 C 89 % 1034,5 hPa 0,0 l/m 0,0 km/h (0 Bft) N 0 0 min 0,000 mm 0 W/m -0,8 C 0,8 C 0,0 km/h (0 Bft) 100 %
15.02.2017 22:10 0,9 C 0,8 C 0,9 C 91 % 1034,3 hPa 0,0 l/m 0,0 km/h (0 Bft) SW 225 0 min 0,000 mm 0 W/m -0,4 C 0,9 C 3,2 km/h (1 Bft) 100 %
15.02.2017 22:20 1,2 C 0,9 C 1,2 C 91 % 1034,2 hPa 0,0 l/m 0,0 km/h (0 Bft) SW 225 0 min 0,000 mm 0 W/m -0,1 C 1,2 C 1,6 km/h (1 Bft) 100 %
15.02.2017 22:30 1,0 C 1,0 C 1,2 C 90 % 1034,3 hPa 0,0 l/m 0,0 km/h (0 Bft) SW 225 0 min 0,000 mm 0 W/m -0,5 C 1,0 C 3,2 km/h (1 Bft) 100 %
15.02.2017 22:40 0,4 C 0,4 C 1,0 C 90 % 1034,3 hPa 0,0 l/m 0,0 km/h (0 Bft) W-SW 247 0 min 0,000 mm 0 W/m -1,0 C 0,4 C 3,2 km/h (1 Bft) 100 %
15.02.2017 22:50 0,1 C 0,1 C 0,4 C 90 % 1034,2 hPa 0,0 l/m 0,0 km/h (0 Bft) N 0 0 min 0,000 mm 0 W/m -1,3 C 0,1 C 0,0 km/h (0 Bft) 100 %
15.02.2017 23:00 0,0 C 0,0 C 0,1 C 91 % 1034,3 hPa 0,0 l/m 0,0 km/h (0 Bft) N 0 0 min 0,000 mm 0 W/m -1,3 C 0,0 C 0,0 km/h (0 Bft) 100 %
15.02.2017 23:10 -0,1 C -0,1 C 0,0 C 91 % 1034,2 hPa 0,0 l/m 0,0 km/h (0 Bft) N 0 0 min 0,000 mm 0 W/m -1,4 C -0,1 C 0,0 km/h (0 Bft) 100 %
15.02.2017 23:20 -0,2 C -0,2 C -0,1 C 91 % 1034,2 hPa 0,0 l/m 0,0 km/h (0 Bft) N 0 0 min 0,000 mm 0 W/m -1,5 C -0,2 C 0,0 km/h (0 Bft) 100 %
15.02.2017 23:30 0,0 C -0,2 C 0,0 C 91 % 1034,2 hPa 0,0 l/m 0,0 km/h (0 Bft) N 0 0 min 0,000 mm 0 W/m -1,3 C 0,0 C 0,0 km/h (0 Bft) 100 %
15.02.2017 23:40 -0,1 C -0,1 C 0,1 C 91 % 1034,1 hPa 0,0 l/m 0,0 km/h (0 Bft) N 0 0 min 0,000 mm 0 W/m -1,4 C -0,1 C 0,0 km/h (0 Bft) 100 %
15.02.2017 23:50 -0,5 C -0,5 C -0,1 C 91 % 1034,3 hPa 0,0 l/m 0,0 km/h (0 Bft) N 0 0 min 0,000 mm 0 W/m -1,8 C -0,5 C 0,0 km/h (0 Bft) 100 %
_ Min-Zeit 07:40 07:40 07:50 14:50 00:00 - 00:00 - - - - - 07:40 07:40 00:10 19:50
Minimum _ -3,8 C -3,8 C -3,8 C 64 % 1032,8 hPa - 0,0 km/h (0 Bft) - - - - - -5,0 C -3,8 C 0,0 km/h (0 Bft) 89 %
_ Max-Zeit 15:10 15:10 15:10 09:10 09:40 00:00 16:20 - - 09:00 13:00 12:20 15:10 15:10 15:00 00:00
Maximum _ 10,0 C 9,9 C 10,0 C 92 % 1035,6 hPa 0,0 l/m 4,8 km/h
S-SW (1 Bft)
- - 10 min 0,203 mm 455 W/m 3,7 C 10,0 C 11,3 km/h
S-SW (2 Bft)
100 %
Durchschnitt _ 2,3 C 2,2 C 2,4 C 82 % 1034,3 hPa #0,0 l/m 0,4 km/h (0 Bft) S-SW - #6:10 h #0,991 mm 243 W/m -0,6 C 2,3 C 2,1 km/h (1 Bft) 99 %
PRIVATE WETTERSTATION BILLIGHEIM-ALLFELD - www.neckar-odenwald-wetter.de - Holger Sonntag